createdAt,value
2023-02-21T00:01:48.806Z,45.04
2023-02-21T00:11:50.093Z,44.83
2023-02-21T00:21:51.360Z,44.75
2023-02-21T00:31:52.615Z,44.81
2023-02-21T00:41:53.881Z,44.75
2023-02-21T00:51:55.205Z,44.82
2023-02-21T01:01:56.488Z,44.58
2023-02-21T01:11:57.737Z,44.59
2023-02-21T01:21:59.009Z,44.60
2023-02-21T01:32:00.398Z,44.59
2023-02-21T01:42:04.801Z,44.42
2023-02-21T01:52:06.104Z,44.34
2023-02-21T02:02:07.336Z,44.37
2023-02-21T02:12:08.594Z,44.38
2023-02-21T02:22:09.897Z,44.14
2023-02-21T02:32:11.179Z,44.32
2023-02-21T02:42:12.460Z,44.12
2023-02-21T02:52:13.746Z,44.18
2023-02-21T03:02:15.014Z,44.12
2023-02-21T03:12:16.312Z,43.98
2023-02-21T03:22:17.566Z,44.18
2023-02-21T03:32:18.876Z,44.02
2023-02-21T03:42:20.223Z,43.98
2023-02-21T03:52:21.482Z,44.18
2023-02-21T04:02:22.790Z,43.89
2023-02-21T04:12:24.057Z,44.03
2023-02-21T04:22:25.313Z,44.03
2023-02-21T04:32:26.673Z,44.13
2023-02-21T04:42:27.937Z,44.19
2023-02-21T04:52:29.196Z,44.11
2023-02-21T05:02:30.447Z,44.09
2023-02-21T05:12:31.677Z,44.07
2023-02-21T05:22:32.937Z,44.21
2023-02-21T05:32:34.192Z,44.53
2023-02-21T05:42:35.466Z,44.86
2023-02-21T05:52:36.684Z,45.09
2023-02-21T06:02:37.948Z,44.93
2023-02-21T06:12:39.192Z,45.12
2023-02-21T06:22:40.529Z,45.22
2023-02-21T06:32:41.806Z,45.28
2023-02-21T06:42:43.353Z,45.66
2023-02-21T06:52:44.592Z,45.91
2023-02-21T07:02:46.129Z,45.62
2023-02-21T07:12:47.482Z,45.90
2023-02-21T07:22:48.833Z,45.68
2023-02-21T07:32:50.193Z,45.79
2023-02-21T07:42:51.591Z,45.57
2023-02-21T07:52:52.945Z,45.71
2023-02-21T08:02:54.498Z,45.69
2023-02-21T08:12:55.768Z,45.82
2023-02-21T08:22:57.282Z,45.86
2023-02-21T08:32:58.659Z,45.71
2023-02-21T08:43:04.401Z,45.83
2023-02-21T08:53:14.931Z,45.79
2023-02-21T09:03:19.671Z,46.08
2023-02-21T09:13:27.551Z,45.79
2023-02-21T09:33:57.590Z,46.13
2023-02-21T09:43:58.830Z,46.26
2023-02-21T09:54:00.281Z,46.15
2023-02-21T10:04:08.550Z,46.46
2023-02-21T10:14:16.536Z,46.60
2023-02-21T10:34:47.406Z,46.63
2023-02-21T10:44:48.738Z,46.67
2023-02-21T10:54:51.371Z,46.89
2023-02-21T11:05:09.062Z,46.96
2023-02-21T11:15:10.326Z,46.91
2023-02-21T11:25:19.905Z,46.75
2023-02-21T11:35:26.642Z,46.65
2023-02-21T11:45:36.476Z,47.27
2023-02-21T11:55:41.889Z,46.94
2023-02-21T12:05:50.509Z,47.13
2023-02-21T12:15:58.500Z,47.06
2023-02-21T12:26:07.650Z,47.79
2023-02-21T12:36:16.959Z,47.93
2023-02-21T12:46:24.535Z,47.61
2023-02-21T12:56:32.472Z,47.59
2023-02-21T13:06:40.506Z,47.89
2023-02-21T13:27:05.141Z,47.99
2023-02-21T13:37:06.746Z,48.05
2023-02-21T13:47:14.532Z,47.71
2023-02-21T13:57:22.548Z,47.42
2023-02-21T14:07:30.505Z,47.15
2023-02-21T14:17:38.579Z,47.06
2023-02-21T14:27:46.518Z,47.31
2023-02-21T14:37:54.508Z,47.50
2023-02-21T14:48:03.768Z,47.26
2023-02-21T14:58:22.756Z,47.00
2023-02-21T15:08:24.297Z,46.84
2023-02-21T15:18:28.489Z,46.20
2023-02-21T15:28:35.057Z,46.38
2023-02-21T15:38:44.536Z,46.10
2023-02-21T15:48:52.546Z,45.98
2023-02-21T15:59:00.528Z,45.88
2023-02-21T16:09:08.512Z,45.49
2023-02-21T16:19:10.151Z,44.96
2023-02-21T16:29:11.460Z,44.85
2023-02-21T16:39:12.718Z,44.83
2023-02-21T16:49:14.191Z,44.69
2023-02-21T16:59:15.508Z,44.54
2023-02-21T17:09:16.890Z,44.68
2023-02-21T17:19:25.517Z,44.43
2023-02-21T17:29:26.956Z,44.58
2023-02-21T17:39:28.236Z,44.17
2023-02-21T17:49:29.771Z,43.95
2023-02-21T17:59:31.174Z,43.75
2023-02-21T18:09:32.631Z,43.82
2023-02-21T18:19:34.039Z,43.82
2023-02-21T18:29:35.257Z,43.66
2023-02-21T18:39:36.553Z,43.93
2023-02-21T18:49:38.132Z,43.65
2023-02-21T18:59:39.653Z,43.44
2023-02-21T19:09:41.246Z,43.40
2023-02-21T19:19:42.769Z,43.49
2023-02-21T19:29:44.193Z,43.36
2023-02-21T19:39:45.836Z,43.47
2023-02-21T19:49:47.395Z,43.03
2023-02-21T19:59:48.692Z,43.20
2023-02-21T20:09:50.339Z,43.01
2023-02-21T20:19:51.718Z,43.14
2023-02-21T20:29:54.235Z,43.24
2023-02-21T20:39:56.142Z,43.34
2023-02-21T20:49:57.606Z,43.23
2023-02-21T20:59:59.097Z,43.05
2023-02-21T21:10:00.386Z,43.08
2023-02-21T21:20:01.823Z,43.06
2023-02-21T21:30:03.258Z,43.03
2023-02-21T21:40:04.572Z,42.77
2023-02-21T21:50:05.862Z,42.93
2023-02-21T22:00:07.251Z,42.76
2023-02-21T22:10:08.538Z,42.61
2023-02-21T22:20:09.928Z,42.53
2023-02-21T22:30:11.486Z,42.60
2023-02-21T22:40:12.941Z,42.49
2023-02-21T22:50:14.351Z,42.37
2023-02-21T23:00:15.719Z,42.25
2023-02-21T23:10:17.121Z,41.92
2023-02-21T23:20:18.391Z,42.22
2023-02-21T23:30:19.637Z,41.83
2023-02-21T23:40:20.917Z,41.81
2023-02-21T23:50:22.152Z,41.93
